sensor_id;sensor_type;location;lat;lon;timestamp;temperature;humidity
68867;SHT30;56451;44.804;20.476;2023-02-28T00:00:56;4.14;73.73
68867;SHT30;56451;44.804;20.476;2023-02-28T00:03:23;4.02;74.03
68867;SHT30;56451;44.804;20.476;2023-02-28T00:05:49;3.96;74.44
68867;SHT30;56451;44.804;20.476;2023-02-28T00:08:15;3.78;75.06
68867;SHT30;56451;44.804;20.476;2023-02-28T00:10:42;3.73;75.52
68867;SHT30;56451;44.804;20.476;2023-02-28T00:13:09;3.79;75.48
68867;SHT30;56451;44.804;20.476;2023-02-28T00:15:37;3.81;75.53
68867;SHT30;56451;44.804;20.476;2023-02-28T00:18:04;3.85;75.59
68867;SHT30;56451;44.804;20.476;2023-02-28T00:20:31;3.83;75.66
68867;SHT30;56451;44.804;20.476;2023-02-28T00:22:58;3.94;75.47
68867;SHT30;56451;44.804;20.476;2023-02-28T00:25:25;4.00;75.32
68867;SHT30;56451;44.804;20.476;2023-02-28T00:27:51;3.92;75.19
68867;SHT30;56451;44.804;20.476;2023-02-28T00:30:23;3.92;75.19
68867;SHT30;56451;44.804;20.476;2023-02-28T00:32:50;3.90;75.35
68867;SHT30;56451;44.804;20.476;2023-02-28T00:35:17;3.76;75.57
68867;SHT30;56451;44.804;20.476;2023-02-28T00:37:44;3.71;75.95
68867;SHT30;56451;44.804;20.476;2023-02-28T00:40:12;3.69;76.40
68867;SHT30;56451;44.804;20.476;2023-02-28T00:42:41;3.75;76.44
68867;SHT30;56451;44.804;20.476;2023-02-28T00:45:08;3.73;76.13
68867;SHT30;56451;44.804;20.476;2023-02-28T00:47:38;3.72;76.19
68867;SHT30;56451;44.804;20.476;2023-02-28T00:50:07;3.71;76.44
68867;SHT30;56451;44.804;20.476;2023-02-28T00:52:39;3.61;76.68
68867;SHT30;56451;44.804;20.476;2023-02-28T00:55:09;3.50;77.00
68867;SHT30;56451;44.804;20.476;2023-02-28T00:57:36;3.48;77.25
68867;SHT30;56451;44.804;20.476;2023-02-28T01:00:05;3.36;77.58
68867;SHT30;56451;44.804;20.476;2023-02-28T01:02:33;3.24;78.06
68867;SHT30;56451;44.804;20.476;2023-02-28T01:05:01;3.27;78.17
68867;SHT30;56451;44.804;20.476;2023-02-28T01:07:29;3.30;78.25
68867;SHT30;56451;44.804;20.476;2023-02-28T01:09:56;3.28;78.16
68867;SHT30;56451;44.804;20.476;2023-02-28T01:12:27;3.41;78.02
68867;SHT30;56451;44.804;20.476;2023-02-28T01:14:56;3.41;77.92
68867;SHT30;56451;44.804;20.476;2023-02-28T01:17:24;3.38;77.76
68867;SHT30;56451;44.804;20.476;2023-02-28T01:19:53;3.44;77.90
68867;SHT30;56451;44.804;20.476;2023-02-28T01:22:20;3.52;77.95
68867;SHT30;56451;44.804;20.476;2023-02-28T01:24:48;3.68;77.56
68867;SHT30;56451;44.804;20.476;2023-02-28T01:27:14;3.82;77.06
68867;SHT30;56451;44.804;20.476;2023-02-28T01:29:41;3.90;76.35
68867;SHT30;56451;44.804;20.476;2023-02-28T01:32:09;3.86;76.07
68867;SHT30;56451;44.804;20.476;2023-02-28T01:34:36;3.85;75.93
68867;SHT30;56451;44.804;20.476;2023-02-28T01:37:04;3.78;75.97
68867;SHT30;56451;44.804;20.476;2023-02-28T01:39:30;3.86;75.99
68867;SHT30;56451;44.804;20.476;2023-02-28T01:41:57;3.87;75.85
68867;SHT30;56451;44.804;20.476;2023-02-28T01:45:00;3.89;75.98
68867;SHT30;56451;44.804;20.476;2023-02-28T01:47:35;4.00;75.90
68867;SHT30;56451;44.804;20.476;2023-02-28T01:50:07;3.99;75.39
68867;SHT30;56451;44.804;20.476;2023-02-28T01:52:37;3.94;75.64
68867;SHT30;56451;44.804;20.476;2023-02-28T01:55:06;3.97;75.65
68867;SHT30;56451;44.804;20.476;2023-02-28T01:57:45;4.00;75.73
68867;SHT30;56451;44.804;20.476;2023-02-28T02:00:16;4.00;75.47
68867;SHT30;56451;44.804;20.476;2023-02-28T02:02:52;3.89;75.29
68867;SHT30;56451;44.804;20.476;2023-02-28T02:05:22;3.83;75.51
68867;SHT30;56451;44.804;20.476;2023-02-28T02:07:54;3.76;75.90
68867;SHT30;56451;44.804;20.476;2023-02-28T02:16:34;3.79;76.19
68867;SHT30;56451;44.804;20.476;2023-02-28T02:39:47;3.59;76.90
68867;SHT30;56451;44.804;20.476;2023-02-28T02:45:11;3.82;76.46
68867;SHT30;56451;44.804;20.476;2023-02-28T02:47:42;3.86;76.21
68867;SHT30;56451;44.804;20.476;2023-02-28T02:50:31;3.97;75.70
68867;SHT30;56451;44.804;20.476;2023-02-28T02:53:10;4.04;75.41
68867;SHT30;56451;44.804;20.476;2023-02-28T02:55:41;4.04;75.22
68867;SHT30;56451;44.804;20.476;2023-02-28T02:58:24;4.06;74.86
68867;SHT30;56451;44.804;20.476;2023-02-28T03:01:02;3.92;75.18
68867;SHT30;56451;44.804;20.476;2023-02-28T03:03:36;3.86;75.54
68867;SHT30;56451;44.804;20.476;2023-02-28T03:06:07;3.82;75.61
68867;SHT30;56451;44.804;20.476;2023-02-28T03:08:39;3.83;75.85
68867;SHT30;56451;44.804;20.476;2023-02-28T03:11:24;3.78;75.73
68867;SHT30;56451;44.804;20.476;2023-02-28T03:17:16;3.73;76.30
68867;SHT30;56451;44.804;20.476;2023-02-28T03:25:36;3.75;76.24
68867;SHT30;56451;44.804;20.476;2023-02-28T03:28:35;3.73;76.28
68867;SHT30;56451;44.804;20.476;2023-02-28T03:33:47;3.68;76.41
68867;SHT30;56451;44.804;20.476;2023-02-28T03:36:29;3.66;76.48
68867;SHT30;56451;44.804;20.476;2023-02-28T03:39:03;3.71;76.39
68867;SHT30;56451;44.804;20.476;2023-02-28T03:42:01;3.65;76.18
68867;SHT30;56451;44.804;20.476;2023-02-28T03:44:45;3.56;76.75
68867;SHT30;56451;44.804;20.476;2023-02-28T03:50:20;3.34;77.57
68867;SHT30;56451;44.804;20.476;2023-02-28T03:53:05;3.27;77.94
68867;SHT30;56451;44.804;20.476;2023-02-28T03:58:51;3.18;78.44
68867;SHT30;56451;44.804;20.476;2023-02-28T04:04:02;3.31;78.46
68867;SHT30;56451;44.804;20.476;2023-02-28T04:06:36;3.32;78.02
68867;SHT30;56451;44.804;20.476;2023-02-28T04:09:10;3.39;78.01
68867;SHT30;56451;44.804;20.476;2023-02-28T04:11:42;3.48;77.78
68867;SHT30;56451;44.804;20.476;2023-02-28T04:14:11;3.51;77.34
68867;SHT30;56451;44.804;20.476;2023-02-28T04:16:40;3.48;77.37
68867;SHT30;56451;44.804;20.476;2023-02-28T04:19:10;3.41;77.54
68867;SHT30;56451;44.804;20.476;2023-02-28T04:21:42;3.48;77.41
68867;SHT30;56451;44.804;20.476;2023-02-28T04:24:21;3.48;77.49
68867;SHT30;56451;44.804;20.476;2023-02-28T04:26:51;3.41;77.49
68867;SHT30;56451;44.804;20.476;2023-02-28T04:29:26;3.41;77.61
68867;SHT30;56451;44.804;20.476;2023-02-28T04:31:55;3.41;77.62
68867;SHT30;56451;44.804;20.476;2023-02-28T04:34:27;3.38;77.73
68867;SHT30;56451;44.804;20.476;2023-02-28T04:36:57;3.30;77.92
68867;SHT30;56451;44.804;20.476;2023-02-28T04:39:24;3.32;77.89
68867;SHT30;56451;44.804;20.476;2023-02-28T04:41:50;3.31;77.57
68867;SHT30;56451;44.804;20.476;2023-02-28T04:44:17;3.28;77.71
68867;SHT30;56451;44.804;20.476;2023-02-28T04:46:44;3.30;78.02
68867;SHT30;56451;44.804;20.476;2023-02-28T04:49:12;3.36;77.86
68867;SHT30;56451;44.804;20.476;2023-02-28T04:51:43;3.36;77.90
68867;SHT30;56451;44.804;20.476;2023-02-28T04:54:12;3.35;77.68
68867;SHT30;56451;44.804;20.476;2023-02-28T04:56:39;3.27;77.71
68867;SHT30;56451;44.804;20.476;2023-02-28T04:59:06;3.25;77.91
68867;SHT30;56451;44.804;20.476;2023-02-28T05:01:34;3.31;77.77
68867;SHT30;56451;44.804;20.476;2023-02-28T05:04:05;3.24;78.09
68867;SHT30;56451;44.804;20.476;2023-02-28T05:06:33;3.35;78.08
68867;SHT30;56451;44.804;20.476;2023-02-28T05:09:08;3.38;78.06
68867;SHT30;56451;44.804;20.476;2023-02-28T05:11:38;3.39;77.98
68867;SHT30;56451;44.804;20.476;2023-02-28T05:14:13;3.41;77.98
68867;SHT30;56451;44.804;20.476;2023-02-28T05:16:40;3.45;77.74
68867;SHT30;56451;44.804;20.476;2023-02-28T05:19:08;3.34;78.01
68867;SHT30;56451;44.804;20.476;2023-02-28T05:21:39;3.31;78.46
68867;SHT30;56451;44.804;20.476;2023-02-28T05:24:12;3.28;78.58
68867;SHT30;56451;44.804;20.476;2023-02-28T05:26:40;3.30;78.71
68867;SHT30;56451;44.804;20.476;2023-02-28T05:29:09;3.31;78.53
68867;SHT30;56451;44.804;20.476;2023-02-28T05:31:36;3.36;78.80
68867;SHT30;56451;44.804;20.476;2023-02-28T05:34:03;3.45;78.71
68867;SHT30;56451;44.804;20.476;2023-02-28T05:36:33;3.59;78.15
68867;SHT30;56451;44.804;20.476;2023-02-28T05:38:59;3.72;77.89
68867;SHT30;56451;44.804;20.476;2023-02-28T05:41:27;3.82;77.27
68867;SHT30;56451;44.804;20.476;2023-02-28T05:43:54;3.76;76.54
68867;SHT30;56451;44.804;20.476;2023-02-28T05:46:21;3.75;76.63
68867;SHT30;56451;44.804;20.476;2023-02-28T05:48:51;3.79;76.65
68867;SHT30;56451;44.804;20.476;2023-02-28T05:51:18;3.72;76.96
68867;SHT30;56451;44.804;20.476;2023-02-28T05:53:45;3.68;77.04
68867;SHT30;56451;44.804;20.476;2023-02-28T05:56:12;3.63;76.96
68867;SHT30;56451;44.804;20.476;2023-02-28T05:58:39;3.56;77.66
68867;SHT30;56451;44.804;20.476;2023-02-28T06:01:25;3.59;77.63
68867;SHT30;56451;44.804;20.476;2023-02-28T06:03:59;3.61;77.57
68867;SHT30;56451;44.804;20.476;2023-02-28T06:06:28;3.61;77.65
68867;SHT30;56451;44.804;20.476;2023-02-28T06:08:55;3.61;77.34
68867;SHT30;56451;44.804;20.476;2023-02-28T06:11:22;3.62;77.38
68867;SHT30;56451;44.804;20.476;2023-02-28T06:13:58;3.68;77.24
68867;SHT30;56451;44.804;20.476;2023-02-28T06:16:29;3.68;77.31
68867;SHT30;56451;44.804;20.476;2023-02-28T06:19:01;3.71;77.43
68867;SHT30;56451;44.804;20.476;2023-02-28T06:21:28;3.82;77.18
68867;SHT30;56451;44.804;20.476;2023-02-28T06:24:00;3.75;76.61
68867;SHT30;56451;44.804;20.476;2023-02-28T06:26:30;3.71;76.47
68867;SHT30;56451;44.804;20.476;2023-02-28T06:28:56;3.65;77.03
68867;SHT30;56451;44.804;20.476;2023-02-28T06:31:22;3.71;76.91
68867;SHT30;56451;44.804;20.476;2023-02-28T06:33:50;3.75;76.94
68867;SHT30;56451;44.804;20.476;2023-02-28T06:36:17;3.81;77.10
68867;SHT30;56451;44.804;20.476;2023-02-28T06:38:44;3.89;76.92
68867;SHT30;56451;44.804;20.476;2023-02-28T06:41:14;3.90;76.73
68867;SHT30;56451;44.804;20.476;2023-02-28T06:43:41;3.87;76.67
68867;SHT30;56451;44.804;20.476;2023-02-28T06:46:11;3.96;76.66
68867;SHT30;56451;44.804;20.476;2023-02-28T06:48:43;4.03;76.80
68867;SHT30;56451;44.804;20.476;2023-02-28T06:51:17;4.07;76.46
68867;SHT30;56451;44.804;20.476;2023-02-28T06:53:45;4.13;76.13
68867;SHT30;56451;44.804;20.476;2023-02-28T06:56:16;4.18;75.80
68867;SHT30;56451;44.804;20.476;2023-02-28T06:58:52;4.27;76.03
68867;SHT30;56451;44.804;20.476;2023-02-28T07:01:27;4.38;75.27
68867;SHT30;56451;44.804;20.476;2023-02-28T07:04:01;4.38;75.15
68867;SHT30;56451;44.804;20.476;2023-02-28T07:06:27;4.42;75.03
68867;SHT30;56451;44.804;20.476;2023-02-28T07:08:54;4.48;74.86
68867;SHT30;56451;44.804;20.476;2023-02-28T07:11:22;4.50;74.54
68867;SHT30;56451;44.804;20.476;2023-02-28T07:13:49;4.54;73.41
68867;SHT30;56451;44.804;20.476;2023-02-28T07:16:18;4.44;73.73
68867;SHT30;56451;44.804;20.476;2023-02-28T07:18:48;4.42;73.61
68867;SHT30;56451;44.804;20.476;2023-02-28T07:21:15;4.33;73.94
68867;SHT30;56451;44.804;20.476;2023-02-28T07:23:41;4.17;74.75
68867;SHT30;56451;44.804;20.476;2023-02-28T07:26:13;4.11;75.27
68867;SHT30;56451;44.804;20.476;2023-02-28T07:28:42;4.20;75.49
68867;SHT30;56451;44.804;20.476;2023-02-28T07:31:09;4.20;75.25
68867;SHT30;56451;44.804;20.476;2023-02-28T07:33:36;4.24;75.50
68867;SHT30;56451;44.804;20.476;2023-02-28T07:36:04;4.34;75.41
68867;SHT30;56451;44.804;20.476;2023-02-28T07:38:34;4.44;75.02
68867;SHT30;56451;44.804;20.476;2023-02-28T07:41:10;4.55;74.44
68867;SHT30;56451;44.804;20.476;2023-02-28T07:43:52;4.58;74.09
68867;SHT30;56451;44.804;20.476;2023-02-28T07:47:02;4.64;73.75
68867;SHT30;56451;44.804;20.476;2023-02-28T07:49:41;4.68;73.57
68867;SHT30;56451;44.804;20.476;2023-02-28T07:52:25;4.68;73.14
68867;SHT30;56451;44.804;20.476;2023-02-28T07:55:07;4.61;73.60
68867;SHT30;56451;44.804;20.476;2023-02-28T07:58:07;4.64;73.23
68867;SHT30;56451;44.804;20.476;2023-02-28T08:00:52;4.62;73.52
68867;SHT30;56451;44.804;20.476;2023-02-28T08:03:40;4.51;73.65
68867;SHT30;56451;44.804;20.476;2023-02-28T08:06:25;4.54;73.57
68867;SHT30;56451;44.804;20.476;2023-02-28T08:09:05;4.58;73.95
68867;SHT30;56451;44.804;20.476;2023-02-28T08:11:33;4.62;74.18
68867;SHT30;56451;44.804;20.476;2023-02-28T08:14:02;4.73;74.05
68867;SHT30;56451;44.804;20.476;2023-02-28T08:16:31;4.73;73.53
68867;SHT30;56451;44.804;20.476;2023-02-28T08:19:01;4.78;73.18
68867;SHT30;56451;44.804;20.476;2023-02-28T08:21:34;4.73;73.28
68867;SHT30;56451;44.804;20.476;2023-02-28T08:24:04;4.76;73.26
68867;SHT30;56451;44.804;20.476;2023-02-28T08:26:32;4.82;73.22
68867;SHT30;56451;44.804;20.476;2023-02-28T08:29:01;4.71;73.40
68867;SHT30;56451;44.804;20.476;2023-02-28T08:31:30;4.76;73.52
68867;SHT30;56451;44.804;20.476;2023-02-28T08:33:57;4.81;73.66
68867;SHT30;56451;44.804;20.476;2023-02-28T08:36:27;4.86;73.56
68867;SHT30;56451;44.804;20.476;2023-02-28T08:38:57;4.92;72.92
68867;SHT30;56451;44.804;20.476;2023-02-28T08:41:29;4.86;72.78
68867;SHT30;56451;44.804;20.476;2023-02-28T08:43:58;4.89;72.95
68867;SHT30;56451;44.804;20.476;2023-02-28T08:46:29;4.79;72.87
68867;SHT30;56451;44.804;20.476;2023-02-28T08:48:58;4.76;73.34
68867;SHT30;56451;44.804;20.476;2023-02-28T08:51:28;4.69;73.25
68867;SHT30;56451;44.804;20.476;2023-02-28T08:54:00;4.59;73.96
68867;SHT30;56451;44.804;20.476;2023-02-28T08:56:30;4.59;74.20
68867;SHT30;56451;44.804;20.476;2023-02-28T08:59:01;4.68;74.10
68867;SHT30;56451;44.804;20.476;2023-02-28T09:01:31;4.69;73.81
68867;SHT30;56451;44.804;20.476;2023-02-28T09:04:01;4.69;73.75
68867;SHT30;56451;44.804;20.476;2023-02-28T09:06:32;4.59;74.07
68867;SHT30;56451;44.804;20.476;2023-02-28T09:09:01;4.42;74.04
68867;SHT30;56451;44.804;20.476;2023-02-28T09:11:30;4.42;74.80
68867;SHT30;56451;44.804;20.476;2023-02-28T09:14:01;4.40;75.14
68867;SHT30;56451;44.804;20.476;2023-02-28T09:16:32;4.31;75.41
68867;SHT30;56451;44.804;20.476;2023-02-28T09:19:00;4.27;75.76
68867;SHT30;56451;44.804;20.476;2023-02-28T09:21:29;4.31;75.86
68867;SHT30;56451;44.804;20.476;2023-02-28T09:23:56;4.36;75.36
68867;SHT30;56451;44.804;20.476;2023-02-28T09:26:26;4.45;75.63
68867;SHT30;56451;44.804;20.476;2023-02-28T09:28:57;4.57;75.64
68867;SHT30;56451;44.804;20.476;2023-02-28T09:31:27;4.59;74.90
68867;SHT30;56451;44.804;20.476;2023-02-28T09:33:57;4.68;74.58
68867;SHT30;56451;44.804;20.476;2023-02-28T09:36:27;4.75;74.34
68867;SHT30;56451;44.804;20.476;2023-02-28T09:38:56;4.86;74.20
68867;SHT30;56451;44.804;20.476;2023-02-28T09:41:36;4.92;73.18
68867;SHT30;56451;44.804;20.476;2023-02-28T09:44:11;4.89;73.14
68867;SHT30;56451;44.804;20.476;2023-02-28T09:46:46;4.89;73.27
68867;SHT30;56451;44.804;20.476;2023-02-28T09:49:24;4.95;73.45
68867;SHT30;56451;44.804;20.476;2023-02-28T09:52:01;5.05;73.10
68867;SHT30;56451;44.804;20.476;2023-02-28T09:54:32;5.09;72.80
68867;SHT30;56451;44.804;20.476;2023-02-28T09:57:15;5.08;72.63
68867;SHT30;56451;44.804;20.476;2023-02-28T10:05:39;5.03;73.56
68867;SHT30;56451;44.804;20.476;2023-02-28T10:08:13;5.16;73.64
68867;SHT30;56451;44.804;20.476;2023-02-28T10:11:21;5.24;73.46
68867;SHT30;56451;44.804;20.476;2023-02-28T10:14:22;5.33;73.09
68867;SHT30;56451;44.804;20.476;2023-02-28T10:17:23;5.30;72.65
68867;SHT30;56451;44.804;20.476;2023-02-28T10:20:05;5.29;72.97
68867;SHT30;56451;44.804;20.476;2023-02-28T10:22:56;5.30;73.48
68867;SHT30;56451;44.804;20.476;2023-02-28T10:25:36;5.41;73.15
68867;SHT30;56451;44.804;20.476;2023-02-28T10:28:14;5.46;72.47
68867;SHT30;56451;44.804;20.476;2023-02-28T10:31:00;5.40;72.48
68867;SHT30;56451;44.804;20.476;2023-02-28T10:33:34;5.36;72.16
68867;SHT30;56451;44.804;20.476;2023-02-28T10:36:18;5.34;72.66
68867;SHT30;56451;44.804;20.476;2023-02-28T10:39:42;5.31;72.27
68867;SHT30;56451;44.804;20.476;2023-02-28T10:42:28;5.24;72.88
68867;SHT30;56451;44.804;20.476;2023-02-28T10:45:17;5.22;72.82
68867;SHT30;56451;44.804;20.476;2023-02-28T10:51:04;5.13;72.49
68867;SHT30;56451;44.804;20.476;2023-02-28T10:54:03;5.16;73.15
68867;SHT30;56451;44.804;20.476;2023-02-28T10:56:32;5.19;73.50
68867;SHT30;56451;44.804;20.476;2023-02-28T11:01:49;5.24;73.13
68867;SHT30;56451;44.804;20.476;2023-02-28T11:04:39;5.23;73.35
68867;SHT30;56451;44.804;20.476;2023-02-28T11:07:20;5.24;73.38
68867;SHT30;56451;44.804;20.476;2023-02-28T11:09:54;5.33;73.29
68867;SHT30;56451;44.804;20.476;2023-02-28T11:12:29;5.44;72.92
68867;SHT30;56451;44.804;20.476;2023-02-28T11:15:06;5.52;72.72
68867;SHT30;56451;44.804;20.476;2023-02-28T11:17:35;5.41;72.61
68867;SHT30;56451;44.804;20.476;2023-02-28T11:20:06;5.40;72.83
68867;SHT30;56451;44.804;20.476;2023-02-28T11:22:37;5.33;73.06
68867;SHT30;56451;44.804;20.476;2023-02-28T11:25:19;5.33;72.98
68867;SHT30;56451;44.804;20.476;2023-02-28T11:27:49;5.34;73.15
68867;SHT30;56451;44.804;20.476;2023-02-28T11:31:24;5.41;73.49
68867;SHT30;56451;44.804;20.476;2023-02-28T11:33:54;5.44;72.56
68867;SHT30;56451;44.804;20.476;2023-02-28T11:36:31;5.46;72.10
68867;SHT30;56451;44.804;20.476;2023-02-28T11:39:08;5.38;72.53
68867;SHT30;56451;44.804;20.476;2023-02-28T11:52:57;5.26;73.46
68867;SHT30;56451;44.804;20.476;2023-02-28T11:55:27;5.24;73.73
68867;SHT30;56451;44.804;20.476;2023-02-28T12:04:30;5.27;73.99
68867;SHT30;56451;44.804;20.476;2023-02-28T12:07:20;5.33;73.67
68867;SHT30;56451;44.804;20.476;2023-02-28T12:15:23;5.23;74.38
68867;SHT30;56451;44.804;20.476;2023-02-28T12:18:16;5.29;74.44
68867;SHT30;56451;44.804;20.476;2023-02-28T12:21:18;5.20;74.52
68867;SHT30;56451;44.804;20.476;2023-02-28T12:24:16;5.15;74.67
68867;SHT30;56451;44.804;20.476;2023-02-28T12:26:48;5.20;74.63
68867;SHT30;56451;44.804;20.476;2023-02-28T12:32:41;5.41;73.26
68867;SHT30;56451;44.804;20.476;2023-02-28T12:34:48;5.36;73.87
68867;SHT30;56451;44.804;20.476;2023-02-28T12:37:28;5.38;73.72
68867;SHT30;56451;44.804;20.476;2023-02-28T12:40:02;5.43;73.16
68867;SHT30;56451;44.804;20.476;2023-02-28T12:42:43;5.40;73.43
68867;SHT30;56451;44.804;20.476;2023-02-28T12:45:40;5.41;74.01
68867;SHT30;56451;44.804;20.476;2023-02-28T12:48:15;5.50;74.21
68867;SHT30;56451;44.804;20.476;2023-02-28T12:50:48;5.57;73.86
68867;SHT30;56451;44.804;20.476;2023-02-28T12:53:31;5.54;74.22
68867;SHT30;56451;44.804;20.476;2023-02-28T12:58:56;5.30;74.70
68867;SHT30;56451;44.804;20.476;2023-02-28T13:09:54;5.05;76.14
68867;SHT30;56451;44.804;20.476;2023-02-28T13:12:24;5.05;75.79
68867;SHT30;56451;44.804;20.476;2023-02-28T13:17:59;4.96;77.17
68867;SHT30;56451;44.804;20.476;2023-02-28T13:20:33;4.97;76.51
68867;SHT30;56451;44.804;20.476;2023-02-28T13:23:04;4.89;76.69
68867;SHT30;56451;44.804;20.476;2023-02-28T13:25:53;4.89;76.83
68867;SHT30;56451;44.804;20.476;2023-02-28T13:31:27;4.75;77.88
68867;SHT30;56451;44.804;20.476;2023-02-28T13:36:29;4.83;77.16
68867;SHT30;56451;44.804;20.476;2023-02-28T13:39:50;4.76;77.66
68867;SHT30;56451;44.804;20.476;2023-02-28T13:41:50;4.81;78.19
68867;SHT30;56451;44.804;20.476;2023-02-28T13:44:22;4.89;78.22
68867;SHT30;56451;44.804;20.476;2023-02-28T13:49:26;5.10;77.92
68867;SHT30;56451;44.804;20.476;2023-02-28T13:52:16;5.22;77.07
68867;SHT30;56451;44.804;20.476;2023-02-28T14:00:35;5.47;76.02
68867;SHT30;56451;44.804;20.476;2023-02-28T14:06:38;5.38;75.81
68867;SHT30;56451;44.804;20.476;2023-02-28T14:11:45;5.34;76.85
68867;SHT30;56451;44.804;20.476;2023-02-28T14:17:12;5.36;76.65
68867;SHT30;56451;44.804;20.476;2023-02-28T14:19:45;5.44;76.31
68867;SHT30;56451;44.804;20.476;2023-02-28T14:31:40;5.47;76.51
68867;SHT30;56451;44.804;20.476;2023-02-28T14:34:03;5.52;76.14
68867;SHT30;56451;44.804;20.476;2023-02-28T14:36:42;5.54;76.08
68867;SHT30;56451;44.804;20.476;2023-02-28T14:39:18;5.61;75.97
68867;SHT30;56451;44.804;20.476;2023-02-28T14:41:47;5.68;75.88
68867;SHT30;56451;44.804;20.476;2023-02-28T14:44:25;5.69;75.75
68867;SHT30;56451;44.804;20.476;2023-02-28T14:46:58;5.77;75.87
68867;SHT30;56451;44.804;20.476;2023-02-28T14:49:31;5.84;75.50
68867;SHT30;56451;44.804;20.476;2023-02-28T14:52:14;5.84;75.42
68867;SHT30;56451;44.804;20.476;2023-02-28T14:54:44;5.88;75.14
68867;SHT30;56451;44.804;20.476;2023-02-28T14:57:34;5.94;75.00
68867;SHT30;56451;44.804;20.476;2023-02-28T15:00:16;6.01;74.61
68867;SHT30;56451;44.804;20.476;2023-02-28T15:02:48;6.01;74.56
68867;SHT30;56451;44.804;20.476;2023-02-28T15:05:26;6.02;74.19
68867;SHT30;56451;44.804;20.476;2023-02-28T15:08:05;5.92;74.26
68867;SHT30;56451;44.804;20.476;2023-02-28T15:10:36;5.96;74.47
68867;SHT30;56451;44.804;20.476;2023-02-28T15:13:14;5.95;74.41
68867;SHT30;56451;44.804;20.476;2023-02-28T15:21:20;5.72;74.70
68867;SHT30;56451;44.804;20.476;2023-02-28T15:24:00;5.68;75.07
68867;SHT30;56451;44.804;20.476;2023-02-28T15:26:34;5.61;75.41
68867;SHT30;56451;44.804;20.476;2023-02-28T15:29:17;5.61;75.86
68867;SHT30;56451;44.804;20.476;2023-02-28T15:32:01;5.59;76.03
68867;SHT30;56451;44.804;20.476;2023-02-28T15:34:39;5.47;76.00
68867;SHT30;56451;44.804;20.476;2023-02-28T15:37:47;5.48;76.34
68867;SHT30;56451;44.804;20.476;2023-02-28T15:40:25;5.51;76.59
68867;SHT30;56451;44.804;20.476;2023-02-28T15:43:16;5.61;76.53
68867;SHT30;56451;44.804;20.476;2023-02-28T15:46:03;5.65;76.13
68867;SHT30;56451;44.804;20.476;2023-02-28T15:48:38;5.69;75.32
68867;SHT30;56451;44.804;20.476;2023-02-28T15:51:24;5.67;74.90
68867;SHT30;56451;44.804;20.476;2023-02-28T15:54:10;5.69;74.81
68867;SHT30;56451;44.804;20.476;2023-02-28T15:56:49;5.62;75.03
68867;SHT30;56451;44.804;20.476;2023-02-28T15:59:31;5.62;75.36
68867;SHT30;56451;44.804;20.476;2023-02-28T16:02:21;5.69;75.13
68867;SHT30;56451;44.804;20.476;2023-02-28T16:05:21;5.67;75.43
68867;SHT30;56451;44.804;20.476;2023-02-28T16:08:16;5.78;75.49
68867;SHT30;56451;44.804;20.476;2023-02-28T16:10:44;5.85;75.14
68867;SHT30;56451;44.804;20.476;2023-02-28T16:13:16;5.96;74.88
68867;SHT30;56451;44.804;20.476;2023-02-28T16:15:45;5.99;74.42
68867;SHT30;56451;44.804;20.476;2023-02-28T16:18:13;6.03;74.05
68867;SHT30;56451;44.804;20.476;2023-02-28T16:20:43;6.07;74.20
68867;SHT30;56451;44.804;20.476;2023-02-28T16:23:10;6.10;74.34
68867;SHT30;56451;44.804;20.476;2023-02-28T16:25:43;6.20;74.26
68867;SHT30;56451;44.804;20.476;2023-02-28T16:28:25;6.26;74.10
68867;SHT30;56451;44.804;20.476;2023-02-28T16:31:07;6.30;73.54
68867;SHT30;56451;44.804;20.476;2023-02-28T16:33:37;6.33;73.78
68867;SHT30;56451;44.804;20.476;2023-02-28T16:36:15;6.38;73.82
68867;SHT30;56451;44.804;20.476;2023-02-28T16:38:42;6.43;73.42
68867;SHT30;56451;44.804;20.476;2023-02-28T16:41:17;6.44;73.18
68867;SHT30;56451;44.804;20.476;2023-02-28T16:43:52;6.44;73.22
68867;SHT30;56451;44.804;20.476;2023-02-28T16:46:31;6.38;73.56
68867;SHT30;56451;44.804;20.476;2023-02-28T16:49:00;6.47;73.41
68867;SHT30;56451;44.804;20.476;2023-02-28T16:51:27;6.48;73.31
68867;SHT30;56451;44.804;20.476;2023-02-28T16:53:56;6.50;73.42
68867;SHT30;56451;44.804;20.476;2023-02-28T16:56:27;6.50;73.38
68867;SHT30;56451;44.804;20.476;2023-02-28T16:59:00;6.56;73.38
68867;SHT30;56451;44.804;20.476;2023-02-28T17:01:29;6.57;73.31
68867;SHT30;56451;44.804;20.476;2023-02-28T17:04:04;6.58;73.24
68867;SHT30;56451;44.804;20.476;2023-02-28T17:06:33;6.54;73.35
68867;SHT30;56451;44.804;20.476;2023-02-28T17:09:03;6.51;73.22
68867;SHT30;56451;44.804;20.476;2023-02-28T17:11:33;6.50;73.43
68867;SHT30;56451;44.804;20.476;2023-02-28T17:14:03;6.41;73.70
68867;SHT30;56451;44.804;20.476;2023-02-28T17:16:33;6.41;73.71
68867;SHT30;56451;44.804;20.476;2023-02-28T17:19:04;6.41;74.24
68867;SHT30;56451;44.804;20.476;2023-02-28T17:21:33;6.38;74.71
68867;SHT30;56451;44.804;20.476;2023-02-28T17:24:00;6.41;74.80
68867;SHT30;56451;44.804;20.476;2023-02-28T17:26:26;6.40;74.90
68867;SHT30;56451;44.804;20.476;2023-02-28T17:28:56;6.46;74.74
68867;SHT30;56451;44.804;20.476;2023-02-28T17:31:28;6.48;74.80
68867;SHT30;56451;44.804;20.476;2023-02-28T17:33:59;6.51;74.61
68867;SHT30;56451;44.804;20.476;2023-02-28T17:36:26;6.58;74.46
68867;SHT30;56451;44.804;20.476;2023-02-28T17:38:53;6.57;74.36
68867;SHT30;56451;44.804;20.476;2023-02-28T17:41:25;6.61;74.14
68867;SHT30;56451;44.804;20.476;2023-02-28T17:44:04;6.60;74.01
68867;SHT30;56451;44.804;20.476;2023-02-28T17:46:33;6.61;74.08
68867;SHT30;56451;44.804;20.476;2023-02-28T17:49:13;6.60;74.34
68867;SHT30;56451;44.804;20.476;2023-02-28T17:51:40;6.60;74.09
68867;SHT30;56451;44.804;20.476;2023-02-28T17:54:10;6.53;74.48
68867;SHT30;56451;44.804;20.476;2023-02-28T17:56:39;6.43;74.83
68867;SHT30;56451;44.804;20.476;2023-02-28T17:59:17;6.40;75.26
68867;SHT30;56451;44.804;20.476;2023-02-28T18:01:49;6.36;75.52
68867;SHT30;56451;44.804;20.476;2023-02-28T18:04:18;6.34;75.60
68867;SHT30;56451;44.804;20.476;2023-02-28T18:06:48;6.34;75.42
68867;SHT30;56451;44.804;20.476;2023-02-28T18:09:22;6.27;75.74
68867;SHT30;56451;44.804;20.476;2023-02-28T18:11:50;6.17;76.00
68867;SHT30;56451;44.804;20.476;2023-02-28T18:14:20;6.19;76.18
68867;SHT30;56451;44.804;20.476;2023-02-28T18:16:50;6.19;76.22
68867;SHT30;56451;44.804;20.476;2023-02-28T18:19:18;6.23;76.00
68867;SHT30;56451;44.804;20.476;2023-02-28T18:21:51;6.25;75.71
68867;SHT30;56451;44.804;20.476;2023-02-28T18:24:23;6.20;75.95
68867;SHT30;56451;44.804;20.476;2023-02-28T18:26:52;6.22;76.12
68867;SHT30;56451;44.804;20.476;2023-02-28T18:29:24;6.15;76.39
68867;SHT30;56451;44.804;20.476;2023-02-28T18:31:55;6.02;76.39